sensor_id;sensor_type;location;lat;lon;timestamp;pressure;altitude;pressure_sealevel;temperature;humidity
65227;BME280;51805;49.012;12.104;2023-02-23T00:01:30;97423.28;;;21.98;47.80
65227;BME280;51805;49.012;12.104;2023-02-23T00:03:56;97414.34;;;21.98;47.66
65227;BME280;51805;49.012;12.104;2023-02-23T00:06:22;97412.22;;;21.95;47.72
65227;BME280;51805;49.012;12.104;2023-02-23T00:08:48;97417.63;;;21.95;47.61
65227;BME280;51805;49.012;12.104;2023-02-23T00:11:13;97409.22;;;21.96;47.66
65227;BME280;51805;49.012;12.104;2023-02-23T00:13:39;97416.56;;;21.96;47.89
65227;BME280;51805;49.012;12.104;2023-02-23T00:18:30;97409.81;;;21.93;47.64
65227;BME280;51805;49.012;12.104;2023-02-23T00:20:55;97412.03;;;21.91;47.71
65227;BME280;51805;49.012;12.104;2023-02-23T00:23:21;97409.81;;;21.93;47.66
65227;BME280;51805;49.012;12.104;2023-02-23T00:25:46;97409.03;;;21.93;47.81
65227;BME280;51805;49.012;12.104;2023-02-23T00:28:11;97413.63;;;21.92;47.62
65227;BME280;51805;49.012;12.104;2023-02-23T00:30:36;97408.50;;;21.91;47.66
65227;BME280;51805;49.012;12.104;2023-02-23T00:33:01;97415.81;;;21.90;47.61
65227;BME280;51805;49.012;12.104;2023-02-23T00:35:26;97415.00;;;21.90;47.67
65227;BME280;51805;49.012;12.104;2023-02-23T00:37:51;97414.19;;;21.89;47.59
65227;BME280;51805;49.012;12.104;2023-02-23T00:40:17;97414.19;;;21.89;47.92
65227;BME280;51805;49.012;12.104;2023-02-23T00:42:43;97413.38;;;21.89;47.76
65227;BME280;51805;49.012;12.104;2023-02-23T00:45:08;97414.50;;;21.88;47.60
65227;BME280;51805;49.012;12.104;2023-02-23T00:47:33;97418.00;;;21.88;47.76
65227;BME280;51805;49.012;12.104;2023-02-23T00:49:59;97414.78;;;21.86;47.86
65227;BME280;51805;49.012;12.104;2023-02-23T00:52:24;97423.72;;;21.87;47.76
65227;BME280;51805;49.012;12.104;2023-02-23T00:54:49;97414.78;;;21.86;47.84
65227;BME280;51805;49.012;12.104;2023-02-23T00:57:14;97413.19;;;21.85;47.70
65227;BME280;51805;49.012;12.104;2023-02-23T00:59:39;97408.06;;;21.84;47.77
65227;BME280;51805;49.012;12.104;2023-02-23T01:02:04;97412.34;;;21.85;47.80
65227;BME280;51805;49.012;12.104;2023-02-23T01:04:29;97406.13;;;21.84;47.81
65227;BME280;51805;49.012;12.104;2023-02-23T01:06:54;97415.34;;;21.83;47.86
65227;BME280;51805;49.012;12.104;2023-02-23T01:09:19;97408.34;;;21.82;47.73
65227;BME280;51805;49.012;12.104;2023-02-23T01:11:45;97408.34;;;21.82;47.71
65227;BME280;51805;49.012;12.104;2023-02-23T01:14:10;97412.13;;;21.81;47.67
65227;BME280;51805;49.012;12.104;2023-02-23T01:16:35;97411.03;;;21.82;47.60
65227;BME280;51805;49.012;12.104;2023-02-23T01:19:01;97415.63;;;21.82;47.80
65227;BME280;51805;49.012;12.104;2023-02-23T01:21:28;97411.34;;;21.81;47.71
65227;BME280;51805;49.012;12.104;2023-02-23T01:23:54;97401.88;;;21.78;47.86
65227;BME280;51805;49.012;12.104;2023-02-23T01:28:51;97417.03;;;21.79;47.72
65227;BME280;51805;49.012;12.104;2023-02-23T01:31:17;97418.91;;;21.79;47.62
65227;BME280;51805;49.012;12.104;2023-02-23T01:33:42;97414.88;;;21.76;47.75
65227;BME280;51805;49.012;12.104;2023-02-23T01:36:07;97414.88;;;21.76;47.86
65227;BME280;51805;49.012;12.104;2023-02-23T01:38:32;97416.50;;;21.77;47.69
65227;BME280;51805;49.012;12.104;2023-02-23T01:40:57;97412.16;;;21.76;47.81
65227;BME280;51805;49.012;12.104;2023-02-23T01:43:23;97420.28;;;21.76;47.78
65227;BME280;51805;49.012;12.104;2023-02-23T01:45:48;97418.69;;;21.75;47.80
65227;BME280;51805;49.012;12.104;2023-02-23T01:53:23;97418.13;;;21.73;47.63
65227;BME280;51805;49.012;12.104;2023-02-23T01:55:54;97415.72;;;21.72;47.84
65227;BME280;51805;49.012;12.104;2023-02-23T01:58:21;97413.81;;;21.72;47.90
65227;BME280;51805;49.012;12.104;2023-02-23T02:00:51;97408.41;;;21.72;47.59
65227;BME280;51805;49.012;12.104;2023-02-23T02:03:19;97406.00;;;21.71;47.76
65227;BME280;51805;49.012;12.104;2023-02-23T02:05:48;97410.59;;;21.70;47.91
65227;BME280;51805;49.012;12.104;2023-02-23T02:08:14;97412.22;;;21.71;47.90
65227;BME280;51805;49.012;12.104;2023-02-23T02:10:39;97416.53;;;21.72;47.58
65227;BME280;51805;49.012;12.104;2023-02-23T02:13:05;97409.81;;;21.70;47.71
65227;BME280;51805;49.012;12.104;2023-02-23T02:15:32;97403.56;;;21.69;47.83
65227;BME280;51805;49.012;12.104;2023-02-23T02:20:43;97398.75;;;21.66;47.66
65227;BME280;51805;49.012;12.104;2023-02-23T02:23:21;97398.75;;;21.66;47.86
65227;BME280;51805;49.012;12.104;2023-02-23T02:26:02;97402.56;;;21.65;47.70
65227;BME280;51805;49.012;12.104;2023-02-23T02:28:30;97397.13;;;21.65;47.78
65227;BME280;51805;49.012;12.104;2023-02-23T02:33:40;97397.44;;;21.64;47.76
65227;BME280;51805;49.012;12.104;2023-02-23T02:36:23;97397.44;;;21.64;47.76
65227;BME280;51805;49.012;12.104;2023-02-23T02:39:01;97392.31;;;21.62;47.89
65227;BME280;51805;49.012;12.104;2023-02-23T02:41:35;97393.91;;;21.63;47.79
65227;BME280;51805;49.012;12.104;2023-02-23T02:44:13;97390.38;;;21.63;47.88
65227;BME280;51805;49.012;12.104;2023-02-23T02:46:43;97390.66;;;21.61;47.94
65227;BME280;51805;49.012;12.104;2023-02-23T02:49:12;97390.66;;;21.61;47.80
65227;BME280;51805;49.012;12.104;2023-02-23T02:51:41;97389.06;;;21.60;47.90
65227;BME280;51805;49.012;12.104;2023-02-23T02:56:35;97399.88;;;21.60;47.69
65227;BME280;51805;49.012;12.104;2023-02-23T02:59:00;97392.88;;;21.59;47.93
65227;BME280;51805;49.012;12.104;2023-02-23T03:01:28;97403.69;;;21.59;47.90
65227;BME280;51805;49.012;12.104;2023-02-23T03:03:54;97399.34;;;21.58;47.76
65227;BME280;51805;49.012;12.104;2023-02-23T03:06:20;97405.88;;;21.57;47.87
65227;BME280;51805;49.012;12.104;2023-02-23T03:08:49;97404.25;;;21.56;47.66
65227;BME280;51805;49.012;12.104;2023-02-23T03:11:19;97410.47;;;21.57;47.92
65227;BME280;51805;49.012;12.104;2023-02-23T03:13:47;97412.09;;;21.58;47.78
65227;BME280;51805;49.012;12.104;2023-02-23T03:16:18;97404.78;;;21.58;47.65
65227;BME280;51805;49.012;12.104;2023-02-23T03:21:32;97410.75;;;21.55;48.05
65227;BME280;51805;49.012;12.104;2023-02-23T03:26:42;97409.16;;;21.54;47.90
65227;BME280;51805;49.012;12.104;2023-02-23T03:29:18;97415.63;;;21.53;48.04
65227;BME280;51805;49.012;12.104;2023-02-23T03:31:49;97408.63;;;21.52;48.14
65227;BME280;51805;49.012;12.104;2023-02-23T03:37:02;97414.84;;;21.53;48.04
65227;BME280;51805;49.012;12.104;2023-02-23T03:39:36;97400.06;;;21.45;48.20
65227;BME280;51805;49.012;12.104;2023-02-23T03:42:06;97409.72;;;21.51;48.35
65227;BME280;51805;49.012;12.104;2023-02-23T03:44:34;97416.19;;;21.50;48.25
65227;BME280;51805;49.012;12.104;2023-02-23T03:47:02;97418.91;;;21.50;48.31
65227;BME280;51805;49.012;12.104;2023-02-23T03:49:28;97418.91;;;21.50;48.39
65227;BME280;51805;49.012;12.104;2023-02-23T03:51:58;97418.91;;;21.50;48.34
65227;BME280;51805;49.012;12.104;2023-02-23T03:54:26;97425.41;;;21.49;48.32
65227;BME280;51805;49.012;12.104;2023-02-23T03:56:55;97418.41;;;21.48;48.40
65227;BME280;51805;49.012;12.104;2023-02-23T03:59:23;97417.31;;;21.49;48.33
65227;BME280;51805;49.012;12.104;2023-02-23T04:01:51;97421.09;;;21.48;48.21
65227;BME280;51805;49.012;12.104;2023-02-23T04:04:18;97419.47;;;21.47;48.47
65227;BME280;51805;49.012;12.104;2023-02-23T04:06:44;97422.19;;;21.47;48.46
65227;BME280;51805;49.012;12.104;2023-02-23T04:09:10;97415.16;;;21.46;48.46
65227;BME280;51805;49.012;12.104;2023-02-23T04:11:41;97420.56;;;21.46;48.33
65227;BME280;51805;49.012;12.104;2023-02-23T04:14:14;97423.00;;;21.48;48.25
65227;BME280;51805;49.012;12.104;2023-02-23T04:16:40;97425.97;;;21.46;48.56
65227;BME280;51805;49.012;12.104;2023-02-23T04:19:06;97421.41;;;21.47;48.58
65227;BME280;51805;49.012;12.104;2023-02-23T04:21:31;97422.19;;;21.47;48.53
65227;BME280;51805;49.012;12.104;2023-02-23T04:23:56;97428.16;;;21.44;48.55
65227;BME280;51805;49.012;12.104;2023-02-23T04:26:21;97430.56;;;21.45;48.48
65227;BME280;51805;49.012;12.104;2023-02-23T04:28:47;97434.38;;;21.44;48.50
65227;BME280;51805;49.012;12.104;2023-02-23T04:31:12;97409.34;;;21.34;48.64
65227;BME280;51805;49.012;12.104;2023-02-23T04:33:37;97420.88;;;21.44;48.54
65227;BME280;51805;49.012;12.104;2023-02-23T04:36:02;97419.53;;;21.42;48.56
65227;BME280;51805;49.012;12.104;2023-02-23T04:38:27;97429.25;;;21.43;48.72
65227;BME280;51805;49.012;12.104;2023-02-23T04:40:52;97426.56;;;21.43;48.61
65227;BME280;51805;49.012;12.104;2023-02-23T04:43:17;97423.84;;;21.43;48.76
65227;BME280;51805;49.012;12.104;2023-02-23T04:45:46;97430.34;;;21.42;48.73
65227;BME280;51805;49.012;12.104;2023-02-23T04:48:13;97427.66;;;21.42;48.65
65227;BME280;51805;49.012;12.104;2023-02-23T04:50:56;97430.34;;;21.42;48.70
65227;BME280;51805;49.012;12.104;2023-02-23T04:53:22;97427.13;;;21.40;48.72
65227;BME280;51805;49.012;12.104;2023-02-23T04:55:47;97431.44;;;21.41;48.61
65227;BME280;51805;49.012;12.104;2023-02-23T04:58:12;97433.34;;;21.40;48.82
65227;BME280;51805;49.012;12.104;2023-02-23T05:00:37;97430.94;;;21.39;48.69
65227;BME280;51805;49.012;12.104;2023-02-23T05:03:02;97436.03;;;21.40;48.46
65227;BME280;51805;49.012;12.104;2023-02-23T05:05:28;97437.41;;;21.38;48.82
65227;BME280;51805;49.012;12.104;2023-02-23T05:07:53;97435.22;;;21.40;48.81
65227;BME280;51805;49.012;12.104;2023-02-23T05:10:18;97437.94;;;21.40;48.79
65227;BME280;51805;49.012;12.104;2023-02-23T05:12:43;97434.69;;;21.38;48.79
65227;BME280;51805;49.012;12.104;2023-02-23T05:15:08;97439.03;;;21.39;48.95
65227;BME280;51805;49.012;12.104;2023-02-23T05:17:33;97436.34;;;21.39;48.73
65227;BME280;51805;49.012;12.104;2023-02-23T05:19:58;97423.88;;;21.38;48.94
65227;BME280;51805;49.012;12.104;2023-02-23T05:22:24;97428.50;;;21.37;48.92
65227;BME280;51805;49.012;12.104;2023-02-23T05:24:49;97429.88;;;21.35;48.99
65227;BME280;51805;49.012;12.104;2023-02-23T05:27:14;97431.47;;;21.36;48.81
65227;BME280;51805;49.012;12.104;2023-02-23T05:29:39;97431.47;;;21.36;48.79
65227;BME280;51805;49.012;12.104;2023-02-23T05:32:04;97433.09;;;21.37;48.81
65227;BME280;51805;49.012;12.104;2023-02-23T05:34:29;97434.69;;;21.38;48.79
65227;BME280;51805;49.012;12.104;2023-02-23T05:36:55;97432.00;;;21.38;48.75
65227;BME280;51805;49.012;12.104;2023-02-23T05:39:20;97434.16;;;21.36;48.73
65227;BME280;51805;49.012;12.104;2023-02-23T05:41:45;97435.81;;;21.37;48.70
65227;BME280;51805;49.012;12.104;2023-02-23T05:44:10;97434.69;;;21.38;48.62
65227;BME280;51805;49.012;12.104;2023-02-23T05:46:35;97438.22;;;21.38;48.76
65227;BME280;51805;49.012;12.104;2023-02-23T05:49:00;97441.75;;;21.39;48.60
65227;BME280;51805;49.012;12.104;2023-02-23T05:51:26;97437.94;;;21.40;48.57
65227;BME280;51805;49.012;12.104;2023-02-23T05:53:51;97441.75;;;21.39;48.51
65227;BME280;51805;49.012;12.104;2023-02-23T05:56:17;97444.94;;;21.41;48.52
65227;BME280;51805;49.012;12.104;2023-02-23T05:58:42;97444.94;;;21.41;48.48
65227;BME280;51805;49.012;12.104;2023-02-23T06:01:07;97449.28;;;21.42;48.54
65227;BME280;51805;49.012;12.104;2023-02-23T06:03:32;97441.16;;;21.42;48.34
65227;BME280;51805;49.012;12.104;2023-02-23T06:05:57;97447.06;;;21.44;48.51
65227;BME280;51805;49.012;12.104;2023-02-23T06:08:23;97447.06;;;21.44;48.40
65227;BME280;51805;49.012;12.104;2023-02-23T06:10:48;97461.41;;;21.44;48.38
65227;BME280;51805;49.012;12.104;2023-02-23T06:13:13;97458.72;;;21.44;48.36
65227;BME280;51805;49.012;12.104;2023-02-23T06:15:39;97457.31;;;21.47;48.21
65227;BME280;51805;49.012;12.104;2023-02-23T06:18:04;97471.66;;;21.48;48.16
65227;BME280;51805;49.012;12.104;2023-02-23T06:20:30;97461.66;;;21.48;48.06
65227;BME280;51805;49.012;12.104;2023-02-23T06:22:55;97467.84;;;21.48;48.35
65227;BME280;51805;49.012;12.104;2023-02-23T06:25:20;97470.28;;;21.50;48.28
65227;BME280;51805;49.012;12.104;2023-02-23T06:27:45;97470.28;;;21.50;48.06
65227;BME280;51805;49.012;12.104;2023-02-23T06:30:10;97470.28;;;21.50;48.16
65227;BME280;51805;49.012;12.104;2023-02-23T06:32:36;97475.09;;;21.53;48.08
65227;BME280;51805;49.012;12.104;2023-02-23T06:35:01;97471.34;;;21.54;48.09
65227;BME280;51805;49.012;12.104;2023-02-23T06:37:26;97481.88;;;21.56;48.08
65227;BME280;51805;49.012;12.104;2023-02-23T06:39:51;97492.41;;;21.57;47.93
65227;BME280;51805;49.012;12.104;2023-02-23T06:42:16;97487.00;;;21.57;48.12
65227;BME280;51805;49.012;12.104;2023-02-23T06:44:41;97480.19;;;21.60;47.96
65227;BME280;51805;49.012;12.104;2023-02-23T06:47:07;97484.81;;;21.59;47.86
65227;BME280;51805;49.012;12.104;2023-02-23T06:49:32;97476.69;;;21.59;47.93
65227;BME280;51805;49.012;12.104;2023-02-23T06:51:57;97480.44;;;21.63;47.95
65227;BME280;51805;49.012;12.104;2023-02-23T06:54:22;97482.03;;;21.64;47.93
65227;BME280;51805;49.012;12.104;2023-02-23T06:56:47;97493.97;;;21.63;47.79
65227;BME280;51805;49.012;12.104;2023-02-23T06:59:12;97488.78;;;21.67;47.81
65227;BME280;51805;49.012;12.104;2023-02-23T07:01:38;97492.78;;;21.74;47.77
65227;BME280;51805;49.012;12.104;2023-02-23T07:04:03;97500.31;;;21.82;47.32
65227;BME280;51805;49.012;12.104;2023-02-23T07:06:28;97499.94;;;21.89;47.51
65227;BME280;51805;49.012;12.104;2023-02-23T07:08:55;97501.78;;;21.93;47.37
65227;BME280;51805;49.012;12.104;2023-02-23T07:11:21;97498.22;;;21.98;47.21
65227;BME280;51805;49.012;12.104;2023-02-23T07:13:46;97512.28;;;22.00;47.12
65227;BME280;51805;49.012;12.104;2023-02-23T07:16:11;97503.88;;;22.01;47.24
65227;BME280;51805;49.012;12.104;2023-02-23T07:18:36;97504.41;;;22.03;47.34
65227;BME280;51805;49.012;12.104;2023-02-23T07:21:01;97501.13;;;22.06;47.36
65227;BME280;51805;49.012;12.104;2023-02-23T07:23:26;97507.06;;;22.08;47.19
65227;BME280;51805;49.012;12.104;2023-02-23T07:25:52;97512.19;;;22.10;47.07
65227;BME280;51805;49.012;12.104;2023-02-23T07:28:17;97502.97;;;22.11;47.28
65227;BME280;51805;49.012;12.104;2023-02-23T07:30:42;97512.13;;;22.15;47.16
65227;BME280;51805;49.012;12.104;2023-02-23T07:33:08;97506.72;;;22.15;47.25
65227;BME280;51805;49.012;12.104;2023-02-23T07:35:33;97508.63;;;22.14;47.15
65227;BME280;51805;49.012;12.104;2023-02-23T07:37:58;97518.31;;;22.20;47.04
65227;BME280;51805;49.012;12.104;2023-02-23T07:40:23;97521.00;;;22.20;47.08
65227;BME280;51805;49.012;12.104;2023-02-23T07:42:48;97514.50;;;22.21;47.10
65227;BME280;51805;49.012;12.104;2023-02-23T07:45:13;97513.41;;;22.22;47.20
65227;BME280;51805;49.012;12.104;2023-02-23T07:47:39;97508.50;;;22.24;47.08
65227;BME280;51805;49.012;12.104;2023-02-23T07:50:04;97506.31;;;22.26;47.08
65227;BME280;51805;49.012;12.104;2023-02-23T07:52:29;97509.91;;;22.22;47.43
65227;BME280;51805;49.012;12.104;2023-02-23T07:54:54;97510.91;;;22.26;47.26
65227;BME280;51805;49.012;12.104;2023-02-23T07:57:20;97516.56;;;22.29;47.07
65227;BME280;51805;49.012;12.104;2023-02-23T07:59:46;97515.75;;;22.29;47.21
65227;BME280;51805;49.012;12.104;2023-02-23T08:02:11;97519.00;;;22.31;47.28
65227;BME280;51805;49.012;12.104;2023-02-23T08:04:44;97514.41;;;22.31;47.25
65227;BME280;51805;49.012;12.104;2023-02-23T08:07:09;97518.41;;;22.34;47.10
65227;BME280;51805;49.012;12.104;2023-02-23T08:09:38;97521.66;;;22.36;47.14
65227;BME280;51805;49.012;12.104;2023-02-23T08:12:03;97514.03;;;22.38;47.20
65227;BME280;51805;49.012;12.104;2023-02-23T08:14:31;97513.47;;;22.41;47.16
65227;BME280;51805;49.012;12.104;2023-02-23T08:16:58;97521.88;;;22.39;47.25
65227;BME280;51805;49.012;12.104;2023-02-23T08:19:23;97521.31;;;22.42;47.20
65227;BME280;51805;49.012;12.104;2023-02-23T08:21:48;97526.72;;;22.42;47.24
65227;BME280;51805;49.012;12.104;2023-02-23T08:24:14;97532.13;;;22.42;47.13
65227;BME280;51805;49.012;12.104;2023-02-23T08:26:39;97534.56;;;22.44;47.19
65227;BME280;51805;49.012;12.104;2023-02-23T08:29:05;97525.03;;;22.46;47.24
65227;BME280;51805;49.012;12.104;2023-02-23T08:31:30;97521.22;;;22.47;47.13
65227;BME280;51805;49.012;12.104;2023-02-23T08:33:55;97514.72;;;22.48;47.32
65227;BME280;51805;49.012;12.104;2023-02-23T08:36:20;97520.63;;;22.50;47.26
65227;BME280;51805;49.012;12.104;2023-02-23T08:38:46;97516.06;;;22.51;47.30
65227;BME280;51805;49.012;12.104;2023-02-23T08:41:11;97522.31;;;22.51;47.24
65227;BME280;51805;49.012;12.104;2023-02-23T08:43:36;97526.63;;;22.52;47.43
65227;BME280;51805;49.012;12.104;2023-02-23T08:46:01;97529.03;;;22.54;47.37
65227;BME280;51805;49.012;12.104;2023-02-23T08:48:26;97522.81;;;22.53;47.46
65227;BME280;51805;49.012;12.104;2023-02-23T08:50:54;97526.31;;;22.54;47.30
65227;BME280;51805;49.012;12.104;2023-02-23T08:53:19;97531.44;;;22.55;47.48
65227;BME280;51805;49.012;12.104;2023-02-23T08:55:45;97533.06;;;22.56;47.52
65227;BME280;51805;49.012;12.104;2023-02-23T08:58:10;97533.56;;;22.58;47.64
65227;BME280;51805;49.012;12.104;2023-02-23T09:00:35;97531.69;;;22.59;47.48
65227;BME280;51805;49.012;12.104;2023-02-23T09:03:01;97530.88;;;22.58;47.65
65227;BME280;51805;49.012;12.104;2023-02-23T09:05:26;97527.63;;;22.56;47.48
65227;BME280;51805;49.012;12.104;2023-02-23T09:07:51;97528.69;;;22.60;47.55
65227;BME280;51805;49.012;12.104;2023-02-23T09:10:17;97535.72;;;22.61;47.62
65227;BME280;51805;49.012;12.104;2023-02-23T09:12:43;97543.84;;;22.61;47.65
65227;BME280;51805;49.012;12.104;2023-02-23T09:15:09;97527.59;;;22.61;47.66
65227;BME280;51805;49.012;12.104;2023-02-23T09:17:34;97533.53;;;22.63;47.55
65227;BME280;51805;49.012;12.104;2023-02-23T09:19:59;97538.94;;;22.63;47.50
65227;BME280;51805;49.012;12.104;2023-02-23T09:22:24;97532.94;;;22.66;47.53
65227;BME280;51805;49.012;12.104;2023-02-23T09:24:49;97534.53;;;22.67;47.59
65227;BME280;51805;49.012;12.104;2023-02-23T09:27:15;97538.88;;;22.68;47.51
65227;BME280;51805;49.012;12.104;2023-02-23T09:29:40;97538.34;;;22.66;47.64
65227;BME280;51805;49.012;12.104;2023-02-23T09:32:05;97538.88;;;22.68;47.62
65227;BME280;51805;49.012;12.104;2023-02-23T09:34:30;97537.78;;;22.69;47.52
65227;BME280;51805;49.012;12.104;2023-02-23T09:36:55;97533.97;;;22.70;47.53
65227;BME280;51805;49.012;12.104;2023-02-23T09:39:20;97531.53;;;22.69;47.55
65227;BME280;51805;49.012;12.104;2023-02-23T09:47:07;97532.59;;;22.73;47.53
65227;BME280;51805;49.012;12.104;2023-02-23T09:49:38;97538.81;;;22.73;47.58
65227;BME280;51805;49.012;12.104;2023-02-23T09:52:04;97533.38;;;22.73;47.49
65227;BME280;51805;49.012;12.104;2023-02-23T09:54:35;97541.50;;;22.73;47.55
65227;BME280;51805;49.012;12.104;2023-02-23T09:57:00;97544.22;;;22.73;47.69
65227;BME280;51805;49.012;12.104;2023-02-23T09:59:27;97543.13;;;22.74;47.58
65227;BME280;51805;49.012;12.104;2023-02-23T10:01:57;97546.44;;;22.71;47.77
65227;BME280;51805;49.012;12.104;2023-02-23T10:04:30;97548.63;;;22.69;47.63
65227;BME280;51805;49.012;12.104;2023-02-23T10:07:02;97547.78;;;22.69;47.66
65227;BME280;51805;49.012;12.104;2023-02-23T10:09:35;97548.63;;;22.69;47.64
65227;BME280;51805;49.012;12.104;2023-02-23T10:12:22;97551.63;;;22.68;47.73
65227;BME280;51805;49.012;12.104;2023-02-23T10:14:55;97545.66;;;22.66;47.79
65227;BME280;51805;49.012;12.104;2023-02-23T10:22:34;97544.59;;;22.67;47.61
65227;BME280;51805;49.012;12.104;2023-02-23T10:25:03;97554.63;;;22.66;47.51
65227;BME280;51805;49.012;12.104;2023-02-23T10:27:31;97542.19;;;22.65;47.59
65227;BME280;51805;49.012;12.104;2023-02-23T10:29:57;97553.00;;;22.65;47.65
65227;BME280;51805;49.012;12.104;2023-02-23T10:32:25;97542.19;;;22.65;47.59
65227;BME280;51805;49.012;12.104;2023-02-23T10:34:52;97549.19;;;22.66;47.53
65227;BME280;51805;49.012;12.104;2023-02-23T10:37:17;97545.97;;;22.64;47.58
65227;BME280;51805;49.012;12.104;2023-02-23T10:39:43;97551.38;;;22.64;47.45
65227;BME280;51805;49.012;12.104;2023-02-23T10:42:13;97545.97;;;22.64;47.48
65227;BME280;51805;49.012;12.104;2023-02-23T10:44:39;97545.66;;;22.66;47.46
65227;BME280;51805;49.012;12.104;2023-02-23T10:47:08;97542.19;;;22.65;47.45
65227;BME280;51805;49.012;12.104;2023-02-23T10:49:40;97542.19;;;22.65;47.55
65227;BME280;51805;49.012;12.104;2023-02-23T10:52:09;97544.88;;;22.65;47.52
65227;BME280;51805;49.012;12.104;2023-02-23T10:54:35;97542.97;;;22.66;47.41
65227;BME280;51805;49.012;12.104;2023-02-23T10:57:01;97538.94;;;22.63;47.45
65227;BME280;51805;49.012;12.104;2023-02-23T10:59:27;97535.41;;;22.63;47.33
65227;BME280;51805;49.012;12.104;2023-02-23T11:01:52;97535.13;;;22.64;47.35
65227;BME280;51805;49.012;12.104;2023-02-23T11:04:24;97533.53;;;22.63;47.31
65227;BME280;51805;49.012;12.104;2023-02-23T11:06:50;97532.94;;;22.66;47.30
65227;BME280;51805;49.012;12.104;2023-02-23T11:09:25;97523.72;;;22.67;47.27
65227;BME280;51805;49.012;12.104;2023-02-23T11:14:26;97521.22;;;22.71;47.36
65227;BME280;51805;49.012;12.104;2023-02-23T11:16:51;97518.53;;;22.71;47.49
65227;BME280;51805;49.012;12.104;2023-02-23T11:19:20;97520.94;;;22.72;47.55
65227;BME280;51805;49.012;12.104;2023-02-23T11:21:49;97510.94;;;22.73;47.55
65227;BME280;51805;49.012;12.104;2023-02-23T11:26:40;97516.06;;;22.74;47.49
65227;BME280;51805;49.012;12.104;2023-02-23T11:29:14;97501.69;;;22.74;47.53
65227;BME280;51805;49.012;12.104;2023-02-23T11:31:40;97507.91;;;22.74;47.52
65227;BME280;51805;49.012;12.104;2023-02-23T11:34:10;97504.91;;;22.76;47.58
65227;BME280;51805;49.012;12.104;2023-02-23T11:36:43;97505.72;;;22.76;47.58
65227;BME280;51805;49.012;12.104;2023-02-23T11:41:42;97499.22;;;22.77;47.75
65227;BME280;51805;49.012;12.104;2023-02-23T11:44:09;97499.22;;;22.77;47.80
65227;BME280;51805;49.012;12.104;2023-02-23T11:46:42;97488.38;;;22.77;47.85
65227;BME280;51805;49.012;12.104;2023-02-23T11:49:08;97502.41;;;22.79;47.75
65227;BME280;51805;49.012;12.104;2023-02-23T11:51:38;97492.09;;;22.81;47.76
65227;BME280;51805;49.012;12.104;2023-02-23T11:54:04;97488.31;;;22.82;47.70
65227;BME280;51805;49.012;12.104;2023-02-23T11:56:31;97493.72;;;22.82;47.79
65227;BME280;51805;49.012;12.104;2023-02-23T11:59:06;97488.31;;;22.82;47.74
65227;BME280;51805;49.012;12.104;2023-02-23T12:01:36;97485.31;;;22.84;47.79
65227;BME280;51805;49.012;12.104;2023-02-23T12:04:02;97485.59;;;22.82;47.92
65227;BME280;51805;49.012;12.104;2023-02-23T12:06:29;97481.25;;;22.81;47.97
65227;BME280;51805;49.012;12.104;2023-02-23T12:08:54;97482.91;;;22.82;47.95
65227;BME280;51805;49.012;12.104;2023-02-23T12:11:23;97475.56;;;22.83;47.96
65227;BME280;51805;49.012;12.104;2023-02-23T12:13:51;97484.50;;;22.83;48.00
65227;BME280;51805;49.012;12.104;2023-02-23T12:16:20;97479.91;;;22.84;48.08
65227;BME280;51805;49.012;12.104;2023-02-23T12:19:01;97469.84;;;22.84;48.04
65227;BME280;51805;49.012;12.104;2023-02-23T12:24:05;97475.25;;;22.84;48.37
65227;BME280;51805;49.012;12.104;2023-02-23T12:26:35;97469.06;;;22.84;48.23
65227;BME280;51805;49.012;12.104;2023-02-23T12:29:11;97473.66;;;22.83;48.34
65227;BME280;51805;49.012;12.104;2023-02-23T12:31:48;97471.25;;;22.82;48.39
65227;BME280;51805;49.012;12.104;2023-02-23T12:34:20;97472.63;;;22.79;48.30
65227;BME280;51805;49.012;12.104;2023-02-23T12:36:49;97465.59;;;22.78;48.40
65227;BME280;51805;49.012;12.104;2023-02-23T12:41:50;97471.00;;;22.78;48.10
65227;BME280;51805;49.012;12.104;2023-02-23T12:45:04;97468.00;;;22.80;48.18
65227;BME280;51805;49.012;12.104;2023-02-23T12:47:12;97458.00;;;22.80;48.26
65227;BME280;51805;49.012;12.104;2023-02-23T12:49:40;97459.59;;;22.81;48.09
65227;BME280;51805;49.012;12.104;2023-02-23T12:52:28;97457.41;;;22.83;48.19
65227;BME280;51805;49.012;12.104;2023-02-23T12:54:55;97456.28;;;22.84;48.30
65227;BME280;51805;49.012;12.104;2023-02-23T12:59:58;97451.41;;;22.86;48.32
65227;BME280;51805;49.012;12.104;2023-02-23T13:02:40;97449.22;;;22.88;48.24
65227;BME280;51805;49.012;12.104;2023-02-23T13:08:13;97450.28;;;22.87;48.36
65227;BME280;51805;49.012;12.104;2023-02-23T13:13:26;97443.78;;;22.88;48.38
65227;BME280;51805;49.012;12.104;2023-02-23T13:15:58;97442.16;;;22.87;48.38
65227;BME280;51805;49.012;12.104;2023-02-23T13:18:28;97437.25;;;22.89;48.42
65227;BME280;51805;49.012;12.104;2023-02-23T13:21:00;97438.38;;;22.88;48.36
65227;BME280;51805;49.012;12.104;2023-02-23T13:23:37;97439.97;;;22.89;48.47
65227;BME280;51805;49.012;12.104;2023-02-23T13:29:02;97437.78;;;22.91;48.41
65227;BME280;51805;49.012;12.104;2023-02-23T13:31:30;97425.31;;;22.90;48.45
65227;BME280;51805;49.012;12.104;2023-02-23T13:33:57;97426.94;;;22.91;48.52
65227;BME280;51805;49.012;12.104;2023-02-23T13:36:22;97422.31;;;22.92;48.46
65227;BME280;51805;49.012;12.104;2023-02-23T13:39:05;97419.31;;;22.93;48.57
65227;BME280;51805;49.012;12.104;2023-02-23T13:41:36;97425.84;;;22.92;48.58
65227;BME280;51805;49.012;12.104;2023-02-23T13:44:14;97423.13;;;22.92;48.56
65227;BME280;51805;49.012;12.104;2023-02-23T13:46:47;97415.81;;;22.93;48.66
65227;BME280;51805;49.012;12.104;2023-02-23T13:51:48;97419.31;;;22.93;48.58
65227;BME280;51805;49.012;12.104;2023-02-23T13:56:49;97420.94;;;22.94;48.49